Terminal Aerodrome Forecast
Issued by NWS

Home | Current Version | Previous Version | Graphics & Text | Print | Product List | Glossary On
Versions: 1 2 3 4 5 6 7 8 9 10 11 12 13 14 15 16 17 18 19 20 21 22 23 24 25 26
591
FTUS43 KLOT 252205 AAB
TAFORD
TAF AMD
KORD 252205Z 2522/2624 25010KT P6SM VCSH SCT060 OVC250
     FM260100 21007KT P6SM SCT050 BKN150
     FM261600 23008KT P6SM FEW050 SCT250
     FM262000 25010KT P6SM BKN060=

USA.gov is the U.S. government's official web portal to all federal, state and local government web resources and services.